Time;durP1;ratioP1;P1;durP2;ratioP2;P2;SDS_P1;SDS_P2;PMS_P1;PMS_P2;Temp;Humidity;BMP_temperature;BMP_pressure;BME280_temperature;BME280_humidity;BME280_pressure;Samples;Min_cycle;Max_cycle;Signal;HPM_P1;HPM_P2
2022/08/17 00:00:38;;;;;;;11.55;7.70;;;23.30;22.40;;;;;;5053907;28;20385;-72
2022/08/17 00:03:15;;;;;;;14.65;7.80;;;23.20;22.50;;;;;;5053738;28;20377;-72
2022/08/17 00:05:51;;;;;;;11.50;8.13;;;23.20;22.90;;;;;;5054190;28;20377;-72
2022/08/17 00:08:21;;;;;;;11.68;7.93;;;23.20;22.80;;;;;;5053876;28;20779;-71
2022/08/17 00:10:47;;;;;;;9.52;7.60;;;23.20;22.90;;;;;;5053701;28;20742;-73
2022/08/17 00:13:23;;;;;;;10.50;7.45;;;23.10;23.10;;;;;;5053820;28;20389;-72
2022/08/17 00:15:49;;;;;;;9.70;7.25;;;23.00;23.60;;;;;;5052019;28;20397;-72
2022/08/17 00:18:15;;;;;;;10.90;8.10;;;23.00;23.20;;;;;;5053076;28;20749;-73
2022/08/17 00:20:42;;;;;;;11.60;7.70;;;23.00;23.60;;;;;;5053423;28;20377;-74
2022/08/17 00:23:14;;;;;;;14.05;7.88;;;22.90;23.70;;;;;;5053343;28;20465;-74
2022/08/17 00:25:44;;;;;;;10.98;7.70;;;22.80;24.00;;;;;;5053430;28;20850;-74
2022/08/17 00:28:11;;;;;;;11.60;8.23;;;22.80;24.80;;;;;;5053621;28;20468;-74
2022/08/17 00:30:37;;;;;;;9.82;8.00;;;22.70;24.80;;;;;;5052038;28;20401;-72
2022/08/17 00:33:15;;;;;;;14.07;8.13;;;22.60;24.90;;;;;;5053041;28;20461;-73
2022/08/17 00:35:42;;;;;;;11.48;8.77;;;22.50;25.20;;;;;;5053085;28;20389;-72
2022/08/17 00:38:09;;;;;;;11.48;8.23;;;22.40;25.80;;;;;;5052901;28;20381;-72
2022/08/17 00:41:02;;;;;;;12.25;8.68;;;22.60;26.30;;;;;;5053433;28;20382;-72
2022/08/17 00:43:31;;;;;;;13.45;8.45;;;22.90;25.10;;;;;;5049144;28;20503;-72
2022/08/17 00:45:59;;;;;;;13.80;8.52;;;22.90;25.10;;;;;;5067453;28;20473;-72
2022/08/17 00:48:25;;;;;;;14.75;8.65;;;22.90;25.30;;;;;;5070442;28;20389;-72
2022/08/17 00:50:57;;;;;;;14.23;8.40;;;22.80;25.30;;;;;;5063986;28;20393;-71
2022/08/17 00:53:25;;;;;;;11.25;8.88;;;22.80;25.50;;;;;;5053904;28;20389;-72
2022/08/17 00:55:52;;;;;;;16.80;9.60;;;22.70;25.50;;;;;;5053025;28;20412;-73
2022/08/17 00:58:17;;;;;;;17.17;9.05;;;22.80;25.40;;;;;;5052498;28;20443;-73
2022/08/17 01:00:45;;;;;;;12.05;9.05;;;22.80;25.40;;;;;;5052593;28;20381;-73
2022/08/17 01:03:18;;;;;;;13.77;8.70;;;22.80;25.60;;;;;;5052682;28;20724;-73
2022/08/17 01:05:47;;;;;;;11.60;9.05;;;22.60;25.80;;;;;;5052870;28;20382;-73
2022/08/17 01:08:15;;;;;;;17.13;9.45;;;22.40;26.90;;;;;;5052690;28;20427;-73
2022/08/17 01:10:49;;;;;;;11.07;9.20;;;22.10;27.80;;;;;;5053310;28;20793;-73
2022/08/17 01:13:15;;;;;;;21.65;9.60;;;21.90;28.80;;;;;;5052638;28;20377;-72
2022/08/17 01:15:48;;;;;;;13.20;9.30;;;21.90;29.40;;;;;;5054465;28;20414;-72
2022/08/17 01:18:15;;;;;;;14.38;9.52;;;21.80;29.90;;;;;;5052397;28;20377;-72
2022/08/17 01:20:45;;;;;;;11.80;8.87;;;21.80;29.90;;;;;;5052411;28;20386;-72
2022/08/17 01:23:10;;;;;;;10.80;9.20;;;21.80;29.80;;;;;;5052401;28;20380;-72
2022/08/17 01:25:36;;;;;;;10.67;8.53;;;22.00;29.80;;;;;;5052216;28;20858;-72
2022/08/17 01:28:02;;;;;;;10.32;9.10;;;22.00;29.40;;;;;;5052077;28;20496;-73
2022/08/17 01:30:28;;;;;;;13.30;9.00;;;21.90;30.20;;;;;;5052160;28;20394;-73
2022/08/17 01:32:54;;;;;;;15.95;9.55;;;21.70;30.90;;;;;;5051900;28;20396;-73
2022/08/17 01:35:19;;;;;;;11.30;9.30;;;21.70;31.70;;;;;;5052231;28;20392;-72
2022/08/17 01:37:45;;;;;;;15.00;9.38;;;21.70;32.10;;;;;;5051132;28;20439;-73
2022/08/17 01:40:27;;;;;;;12.00;8.90;;;21.60;32.30;;;;;;5052620;28;20459;-73
2022/08/17 01:43:06;;;;;;;15.82;9.20;;;21.60;32.40;;;;;;5051533;28;20382;-73
2022/08/17 01:45:37;;;;;;;13.38;8.88;;;21.50;33.10;;;;;;5054155;28;20382;-73
2022/08/17 01:48:03;;;;;;;11.00;8.93;;;21.40;33.40;;;;;;5053817;28;20795;-73
2022/08/17 01:50:31;;;;;;;10.93;7.80;;;21.30;34.10;;;;;;5053691;28;20889;-72
2022/08/17 01:53:11;;;;;;;12.63;9.55;;;21.30;34.80;;;;;;5053667;28;20381;-72
2022/08/17 01:55:43;;;;;;;11.65;9.05;;;21.50;34.30;;;;;;5051790;28;20967;-73
2022/08/17 01:58:08;;;;;;;14.65;9.48;;;21.30;34.90;;;;;;5052142;28;20413;-73
2022/08/17 02:00:37;;;;;;;9.80;8.80;;;21.20;35.50;;;;;;5051478;28;20409;-73
2022/08/17 02:03:03;;;;;;;11.60;9.15;;;21.00;36.60;;;;;;5052322;28;21005;-73
2022/08/17 02:05:29;;;;;;;13.52;9.30;;;20.90;37.50;;;;;;5051784;28;20783;-73
2022/08/17 02:07:54;;;;;;;13.13;8.50;;;20.80;38.20;;;;;;5061643;28;20412;-72
2022/08/17 02:10:20;;;;;;;12.57;9.20;;;20.70;38.40;;;;;;5070405;28;20385;-72
2022/08/17 02:12:47;;;;;;;12.63;9.20;;;20.70;39.10;;;;;;5067900;28;20391;-73
2022/08/17 02:15:14;;;;;;;14.02;9.00;;;20.70;39.40;;;;;;5051943;28;20429;-73
2022/08/17 02:17:39;;;;;;;12.65;9.10;;;20.70;39.60;;;;;;5072489;23;20472;-78
2022/08/17 02:20:07;;;;;;;12.27;9.70;;;20.60;39.90;;;;;;5060009;28;20397;-78
2022/08/17 02:22:35;;;;;;;13.38;8.80;;;20.60;40.10;;;;;;5074407;28;20827;-78
2022/08/17 02:25:02;;;;;;;11.60;8.90;;;20.70;39.50;;;;;;5058040;28;20718;-78
2022/08/17 02:27:28;;;;;;;9.50;8.33;;;20.70;39.70;;;;;;5040418;28;20410;-78
2022/08/17 02:29:54;;;;;;;14.80;9.20;;;20.60;39.90;;;;;;5039254;28;20391;-77
2022/08/17 02:32:22;;;;;;;13.77;9.60;;;20.60;40.20;;;;;;5041560;28;20426;-78
2022/08/17 02:34:49;;;;;;;14.00;9.35;;;20.50;40.70;;;;;;5044891;28;20444;-77
2022/08/17 02:37:18;;;;;;;17.98;10.13;;;20.50;40.80;;;;;;5044439;28;20860;-78
2022/08/17 02:39:44;;;;;;;12.60;9.48;;;20.70;40.10;;;;;;5045570;28;20407;-78
2022/08/17 02:42:11;;;;;;;14.82;9.30;;;20.70;39.70;;;;;;5044415;28;20387;-78
2022/08/17 02:44:37;;;;;;;12.85;8.98;;;20.60;39.70;;;;;;5045938;28;20391;-78
2022/08/17 02:47:03;;;;;;;14.02;9.32;;;20.70;39.70;;;;;;5042658;28;20415;-77
2022/08/17 02:49:29;;;;;;;12.85;9.07;;;20.60;40.10;;;;;;5043204;28;20483;-78
2022/08/17 02:51:56;;;;;;;15.40;9.30;;;20.50;40.50;;;;;;5040648;28;20391;-78
2022/08/17 02:54:22;;;;;;;15.45;9.70;;;20.50;40.70;;;;;;5038138;28;20383;-78
2022/08/17 02:56:47;;;;;;;10.68;8.57;;;20.50;40.50;;;;;;5043100;28;20471;-77
2022/08/17 02:59:13;;;;;;;11.32;8.50;;;20.50;40.60;;;;;;5054945;28;20411;-77
2022/08/17 03:01:39;;;;;;;13.50;8.63;;;20.50;40.80;;;;;;5053929;28;20422;-78
2022/08/17 03:04:05;;;;;;;10.73;8.70;;;20.40;40.80;;;;;;5044911;28;20493;-79
2022/08/17 03:06:30;;;;;;;10.27;9.00;;;20.40;40.90;;;;;;5037958;28;20391;-78
2022/08/17 03:08:56;;;;;;;12.98;9.15;;;20.50;40.80;;;;;;5038590;28;20401;-79
2022/08/17 03:11:22;;;;;;;13.40;8.97;;;20.50;40.60;;;;;;5038141;28;20445;-79
2022/08/17 03:13:48;;;;;;;14.13;9.10;;;20.50;40.20;;;;;;5041723;28;20510;-79
2022/08/17 03:16:13;;;;;;;13.67;9.00;;;20.50;40.10;;;;;;5041624;28;20477;-79
2022/08/17 03:18:39;;;;;;;11.47;8.80;;;20.50;40.10;;;;;;5042042;28;20406;-79
2022/08/17 03:21:07;;;;;;;12.00;8.88;;;20.60;39.60;;;;;;5039492;28;20898;-79
2022/08/17 03:23:32;;;;;;;14.60;9.10;;;20.70;39.20;;;;;;5040319;28;20474;-79
2022/08/17 03:25:59;;;;;;;14.20;8.70;;;20.70;39.20;;;;;;5040163;28;20442;-79
2022/08/17 03:28:27;;;;;;;13.23;8.43;;;20.70;39.00;;;;;;5039844;28;20379;-78
2022/08/17 03:30:53;;;;;;;11.18;8.90;;;20.70;38.70;;;;;;5037466;28;20395;-78
2022/08/17 03:33:18;;;;;;;12.45;8.13;;;20.90;37.70;;;;;;5040049;28;20391;-78
2022/08/17 03:35:44;;;;;;;10.27;8.87;;;20.90;37.20;;;;;;5041480;28;20982;-78
2022/08/17 03:38:11;;;;;;;10.75;8.32;;;21.00;36.80;;;;;;5042325;28;20481;-79
2022/08/17 03:40:38;;;;;;;9.75;8.10;;;21.00;36.80;;;;;;5039278;28;20391;-77
2022/08/17 03:43:06;;;;;;;10.73;8.30;;;20.90;37.10;;;;;;5038861;28;20387;-77
2022/08/17 03:56:42;;;;;;;13.75;8.35;;;20.70;38.90;;;;;;5042206;28;20386;-78
2022/08/17 03:59:16;;;;;;;13.00;8.18;;;20.80;38.10;;;;;;5045224;28;20418;-77
2022/08/17 04:01:48;;;;;;;10.25;8.32;;;20.70;37.80;;;;;;5043705;28;20486;-77
2022/08/17 04:04:14;;;;;;;10.23;8.27;;;20.70;37.90;;;;;;5046423;28;20387;-77
2022/08/17 04:06:40;;;;;;;12.73;8.70;;;20.80;37.50;;;;;;5049099;28;20386;-77
2022/08/17 04:09:07;;;;;;;12.75;8.50;;;20.80;38.00;;;;;;5048563;28;20387;-78
2022/08/17 04:11:33;;;;;;;13.50;8.32;;;20.70;37.30;;;;;;5044706;28;20398;-78
2022/08/17 04:14:00;;;;;;;13.27;8.43;;;20.70;37.60;;;;;;5045746;28;20393;-78
2022/08/17 04:16:26;;;;;;;12.88;8.20;;;20.70;37.50;;;;;;5045963;28;20426;-78
2022/08/17 04:18:58;;;;;;;12.93;8.50;;;20.70;37.40;;;;;;5044551;28;20767;-78
2022/08/17 04:21:23;;;;;;;15.85;8.27;;;20.70;37.40;;;;;;5044838;28;20372;-77
2022/08/17 04:23:49;;;;;;;10.95;8.20;;;20.70;37.10;;;;;;5043944;28;20486;-77
2022/08/17 04:26:15;;;;;;;11.80;8.20;;;20.80;36.60;;;;;;5043097;28;20387;-78
2022/08/17 04:28:41;;;;;;;12.15;8.10;;;20.80;36.20;;;;;;5048343;28;20455;-78
2022/08/17 04:31:08;;;;;;;15.18;8.25;;;20.80;36.20;;;;;;5046697;28;20413;-77
2022/08/17 04:33:33;;;;;;;11.20;7.95;;;20.90;35.70;;;;;;5047309;28;20387;-78
2022/08/17 04:36:01;;;;;;;11.33;7.50;;;20.90;35.60;;;;;;5046949;28;20398;-78
2022/08/17 04:38:29;;;;;;;8.13;7.32;;;20.90;35.20;;;;;;5043611;28;20386;-78
2022/08/17 04:43:43;;;;;;;8.27;7.18;;;21.00;34.30;;;;;;5036797;28;20389;-78
2022/08/17 04:46:17;;;;;;;10.15;7.28;;;21.00;34.20;;;;;;5037971;28;20466;-78
2022/08/17 04:48:46;;;;;;;8.83;7.20;;;21.10;33.70;;;;;;5040327;28;20395;-79
2022/08/17 04:51:19;;;;;;;8.48;7.20;;;21.10;33.60;;;;;;5040342;28;20418;-79
2022/08/17 04:53:49;;;;;;;13.70;8.20;;;21.20;33.90;;;;;;5040152;28;20387;-79
2022/08/17 04:56:16;;;;;;;10.57;7.03;;;21.30;32.90;;;;;;5040924;28;20466;-77
2022/08/17 04:58:47;;;;;;;9.55;7.00;;;21.40;32.60;;;;;;5040291;28;20410;-78
2022/08/17 05:01:13;;;;;;;10.18;7.65;;;21.40;32.20;;;;;;5039737;28;20383;-79
2022/08/17 05:03:40;;;;;;;9.75;6.95;;;21.50;32.10;;;;;;5040083;28;20394;-79
2022/08/17 05:06:06;;;;;;;8.27;6.70;;;21.70;31.30;;;;;;5037780;28;20466;-78
2022/08/17 05:08:32;;;;;;;11.10;7.47;;;21.70;30.90;;;;;;5038115;28;20402;-79
2022/08/17 05:10:59;;;;;;;9.43;6.73;;;21.70;30.80;;;;;;5039951;28;20451;-80
2022/08/17 05:13:26;;;;;;;9.80;7.20;;;21.70;30.70;;;;;;5038981;28;20395;-80
2022/08/17 05:16:00;;;;;;;8.25;7.00;;;21.70;30.80;;;;;;5040937;28;20417;-80
2022/08/17 05:18:26;;;;;;;9.57;7.30;;;21.70;30.90;;;;;;5041257;28;20474;-79
2022/08/17 05:20:53;;;;;;;9.10;6.88;;;21.70;30.70;;;;;;5039157;28;20438;-80
2022/08/17 05:23:20;;;;;;;11.05;7.50;;;21.80;30.60;;;;;;5039178;28;20372;-78
2022/08/17 05:25:48;;;;;;;11.30;7.90;;;21.80;31.00;;;;;;5038344;28;20398;-79
2022/08/17 05:28:16;;;;;;;14.80;7.35;;;21.90;30.00;;;;;;5039128;28;20383;-79
2022/08/17 05:30:42;;;;;;;9.50;6.80;;;22.00;29.80;;;;;;5043007;28;20418;-78
2022/08/17 05:33:11;;;;;;;14.43;7.13;;;22.10;29.50;;;;;;5043437;28;20410;-78
2022/08/17 05:35:43;;;;;;;13.43;7.65;;;22.10;29.20;;;;;;5042635;28;20387;-78
2022/08/17 05:38:08;;;;;;;16.67;8.15;;;22.20;28.90;;;;;;5044032;28;20375;-79
2022/08/17 05:40:35;;;;;;;13.98;6.88;;;22.30;28.40;;;;;;5042524;28;20522;-77
2022/08/17 05:43:09;;;;;;;8.95;6.65;;;22.30;28.40;;;;;;5038938;28;20402;-79
2022/08/17 05:45:54;;;;;;;13.20;6.90;;;22.40;28.00;;;;;;5039385;28;20506;-78
2022/08/17 05:48:20;;;;;;;11.70;7.60;;;22.40;27.80;;;;;;5041306;28;20388;-78
2022/08/17 05:51:04;;;;;;;13.70;7.00;;;22.60;27.40;;;;;;5043258;28;20383;-79
2022/08/17 05:53:46;;;;;;;13.63;7.40;;;22.70;27.10;;;;;;5040370;28;20390;-79
2022/08/17 05:56:49;;;;;;;13.05;7.30;;;22.80;26.50;;;;;;5046313;28;20412;-80
2022/08/17 06:00:03;;;;;;;10.48;7.20;;;22.90;26.30;;;;;;5046908;28;20411;-79
2022/08/17 06:02:52;;;;;;;13.90;7.40;;;23.00;25.80;;;;;;4997883;28;20413;-78
2022/08/17 06:05:42;;;;;;;11.98;6.95;;;23.20;25.00;;;;;;5040942;28;20437;-78
2022/08/17 06:08:22;;;;;;;12.02;6.60;;;23.40;23.80;;;;;;5042081;28;20387;-79
2022/08/17 06:11:06;;;;;;;17.63;7.30;;;23.50;23.60;;;;;;5046401;28;20414;-78
2022/08/17 06:13:38;;;;;;;14.80;7.83;;;23.40;23.80;;;;;;5042534;28;20837;-79
2022/08/17 06:16:14;;;;;;;17.08;7.57;;;23.60;23.70;;;;;;5043287;28;20415;-79
2022/08/17 06:18:48;;;;;;;12.32;6.75;;;23.50;24.40;;;;;;5039328;28;20439;-79
2022/08/17 06:21:17;;;;;;;18.70;7.37;;;23.60;23.30;;;;;;5038194;28;20408;-80
2022/08/17 06:24:04;;;;;;;16.17;7.10;;;23.60;23.30;;;;;;5039004;28;20462;-80
2022/08/17 06:26:38;;;;;;;12.82;7.68;;;23.60;23.30;;;;;;5039421;28;20875;-79
2022/08/17 06:29:16;;;;;;;15.52;7.25;;;23.70;23.00;;;;;;5038761;28;20418;-79
2022/08/17 06:31:42;;;;;;;13.98;7.10;;;23.90;22.70;;;;;;5038770;28;20387;-78
2022/08/17 06:34:11;;;;;;;13.40;7.30;;;24.10;21.80;;;;;;5042908;28;20413;-79
2022/08/17 06:36:46;;;;;;;14.60;7.45;;;24.40;20.80;;;;;;5039955;28;20384;-78
2022/08/17 06:39:46;;;;;;;11.88;7.20;;;24.60;20.00;;;;;;5039758;28;20429;-80
2022/08/17 06:42:29;;;;;;;17.35;7.28;;;24.80;19.60;;;;;;5039012;28;20418;-78
2022/08/17 06:45:05;;;;;;;19.27;7.40;;;25.00;19.50;;;;;;5037278;28;20814;-79
2022/08/17 06:47:36;;;;;;;21.23;7.25;;;25.10;19.00;;;;;;5037165;28;20394;-79
2022/08/17 06:50:26;;;;;;;12.60;7.00;;;25.10;18.90;;;;;;5041689;28;20391;-79
2022/08/17 06:53:41;;;;;;;14.43;7.30;;;25.30;18.80;;;;;;5033650;28;20394;-79
2022/08/17 06:56:10;;;;;;;14.10;8.25;;;25.30;18.70;;;;;;5014637;28;20828;-78
2022/08/17 06:58:37;;;;;;;10.55;7.57;;;25.40;19.00;;;;;;5039372;28;20851;-79
2022/08/17 07:01:19;;;;;;;20.25;9.23;;;25.40;19.10;;;;;;5031183;28;20794;-79
2022/08/17 07:03:56;;;;;;;16.58;9.07;;;25.30;20.00;;;;;;5025219;28;20492;-79
2022/08/17 07:06:26;;;;;;;18.52;9.75;;;25.20;20.40;;;;;;5041385;28;20895;-78
2022/08/17 07:09:20;;;;;;;12.87;10.20;;;25.30;20.60;;;;;;5031770;28;20491;-79
2022/08/17 07:12:01;;;;;;;19.25;10.10;;;25.20;20.80;;;;;;5024878;28;20404;-79
2022/08/17 07:14:47;;;;;;;21.27;11.35;;;25.20;21.30;;;;;;5019587;28;20435;-77
2022/08/17 07:17:17;;;;;;;19.00;11.05;;;25.10;21.70;;;;;;5041037;28;20925;-76
2022/08/17 07:19:46;;;;;;;16.73;11.80;;;25.00;22.30;;;;;;5036598;28;20417;-76
2022/08/17 07:22:24;;;;;;;17.95;11.48;;;25.00;22.70;;;;;;5014655;28;20636;-77
2022/08/17 07:24:56;;;;;;;16.00;11.82;;;25.00;22.70;;;;;;5051845;28;20399;-76
2022/08/17 07:27:44;;;;;;;21.30;11.30;;;25.00;22.50;;;;;;5048289;28;20476;-77
2022/08/17 07:30:15;;;;;;;18.13;11.40;;;25.10;23.20;;;;;;5065435;28;20435;-76
2022/08/17 07:32:46;;;;;;;16.73;12.48;;;25.30;22.00;;;;;;5062974;28;20382;-77
2022/08/17 07:35:16;;;;;;;19.88;11.68;;;25.30;21.80;;;;;;5061580;28;20457;-77
2022/08/17 07:37:54;;;;;;;16.20;11.30;;;25.20;22.20;;;;;;5071930;28;20451;-77
2022/08/17 07:40:28;;;;;;;19.40;12.70;;;25.30;22.40;;;;;;5058812;28;20391;-77
2022/08/17 07:43:16;;;;;;;19.15;12.57;;;25.20;22.40;;;;;;5045168;28;20377;-78
2022/08/17 07:48:40;;;;;;;21.35;12.80;;;25.50;22.00;;;;;;5046457;28;20397;-78
2022/08/17 07:51:18;;;;;;;18.90;12.95;;;25.70;21.20;;;;;;5039217;28;20379;-77
2022/08/17 07:53:44;;;;;;;19.02;13.23;;;25.60;21.70;;;;;;5036664;28;20822;-77
2022/08/17 07:56:14;;;;;;;21.42;13.80;;;25.60;21.50;;;;;;5038353;28;20395;-77
2022/08/17 07:58:41;;;;;;;20.25;14.10;;;25.50;21.90;;;;;;5041928;28;20402;-77
2022/08/17 08:01:14;;;;;;;28.80;14.57;;;25.10;23.40;;;;;;5037874;28;20463;-78
2022/08/17 08:03:44;;;;;;;22.60;15.83;;;24.90;24.30;;;;;;5041637;28;20418;-78
2022/08/17 08:06:23;;;;;;;19.85;14.90;;;24.70;24.70;;;;;;5041277;28;20394;-77
2022/08/17 08:08:54;;;;;;;23.25;15.15;;;24.90;24.90;;;;;;5041401;28;20379;-79
2022/08/17 08:11:32;;;;;;;24.60;15.90;;;25.00;24.30;;;;;;5039358;28;20383;-78
2022/08/17 08:14:21;;;;;;;20.87;15.10;;;25.20;23.40;;;;;;5038952;28;20903;-79
2022/08/17 08:17:05;;;;;;;20.05;15.43;;;25.10;23.80;;;;;;5056959;23;20478;-73
2022/08/17 08:19:32;;;;;;;23.67;15.43;;;25.00;24.00;;;;;;5053767;28;20431;-74
2022/08/17 08:22:19;;;;;;;19.23;14.40;;;25.10;24.20;;;;;;5052929;28;20401;-74
2022/08/17 08:24:57;;;;;;;21.10;14.70;;;25.60;23.00;;;;;;5054588;28;20425;-74
2022/08/17 08:27:35;;;;;;;21.02;14.18;;;25.90;21.90;;;;;;5052062;28;20834;-74
2022/08/17 08:30:14;;;;;;;19.80;14.60;;;26.20;20.80;;;;;;5056159;28;20431;-73
2022/08/17 08:33:02;;;;;;;96.00;21.45;;;26.50;20.30;;;;;;5051143;28;20421;-71
2022/08/17 08:35:45;;;;;;;288.52;42.00;;;26.70;20.00;;;;;;5029214;28;20402;-74
2022/08/17 08:38:28;;;;;;;43.33;18.13;;;26.90;19.60;;;;;;5032779;28;20541;-75
2022/08/17 08:41:12;;;;;;;20.33;15.27;;;27.10;18.90;;;;;;5032181;28;20399;-73
2022/08/17 08:43:45;;;;;;;18.70;16.27;;;27.00;19.00;;;;;;5039400;28;20385;-73
2022/08/17 08:46:34;;;;;;;23.40;16.52;;;26.90;18.90;;;;;;5052422;28;20381;-73
2022/08/17 08:49:32;;;;;;;21.52;16.65;;;26.80;19.20;;;;;;5033326;28;20390;-75
2022/08/17 08:52:00;;;;;;;22.33;17.50;;;26.60;19.50;;;;;;5033259;28;20416;-75
2022/08/17 08:54:43;;;;;;;21.70;17.55;;;26.30;20.50;;;;;;5046224;28;20393;-75
2022/08/17 08:57:11;;;;;;;22.95;15.55;;;26.10;20.30;;;;;;5051637;28;20389;-77
2022/08/17 08:59:43;;;;;;;24.35;17.00;;;26.00;21.10;;;;;;5048744;28;20480;-76
2022/08/17 09:02:38;;;;;;;26.77;17.30;;;25.80;21.30;;;;;;5052219;28;20882;-76
2022/08/17 09:05:06;;;;;;;26.30;18.70;;;25.60;22.00;;;;;;5007679;28;20393;-75
2022/08/17 09:08:20;;;;;;;20.45;17.98;;;25.50;22.50;;;;;;5029111;28;20445;-75
2022/08/17 09:11:34;;;;;;;25.25;18.70;;;25.40;22.90;;;;;;5035768;28;20396;-77
2022/08/17 09:14:24;;;;;;;25.23;18.17;;;25.40;23.30;;;;;;5029107;28;20766;-76
2022/08/17 09:17:07;;;;;;;23.53;18.10;;;25.40;23.30;;;;;;5050538;28;20422;-77
2022/08/17 09:19:41;;;;;;;30.10;19.30;;;25.40;23.10;;;;;;5037064;28;20418;-78
2022/08/17 09:22:45;;;;;;;24.40;18.90;;;25.40;23.00;;;;;;5051936;28;20389;-77
2022/08/17 09:25:19;;;;;;;34.92;19.60;;;25.30;23.60;;;;;;5052028;28;20946;-77
2022/08/17 09:27:55;;;;;;;27.95;18.10;;;25.10;24.40;;;;;;5054635;28;20468;-76
2022/08/17 09:30:22;;;;;;;31.80;20.03;;;25.10;24.40;;;;;;5052438;28;20394;-75
2022/08/17 09:33:00;;;;;;;52.22;21.35;;;25.00;25.40;;;;;;5052248;28;20405;-76
2022/08/17 09:35:43;;;;;;;42.55;20.15;;;25.00;24.90;;;;;;5043534;28;20414;-74
2022/08/17 09:38:52;;;;;;;40.45;20.90;;;25.10;24.60;;;;;;5031941;28;20383;-76
2022/08/17 09:41:45;;;;;;;24.33;20.77;;;25.20;24.40;;;;;;5052807;28;20397;-78
2022/08/17 09:44:41;;;;;;;30.00;18.17;;;25.20;24.00;;;;;;5052426;28;20388;-77
2022/08/17 09:47:19;;;;;;;30.00;20.40;;;25.40;23.60;;;;;;5038921;28;20432;-77
2022/08/17 09:49:49;;;;;;;28.05;20.60;;;25.40;22.90;;;;;;5033067;28;20379;-74
2022/08/17 09:52:22;;;;;;;28.83;20.40;;;25.40;23.60;;;;;;5031944;28;20391;-73
2022/08/17 09:54:50;;;;;;;28.60;20.80;;;25.30;23.70;;;;;;5032011;28;20387;-76
2022/08/17 09:57:22;;;;;;;31.00;21.40;;;25.30;23.80;;;;;;5053935;28;20411;-74
2022/08/17 10:00:10;;;;;;;27.70;20.17;;;25.20;24.20;;;;;;5038922;28;20425;-75
2022/08/17 10:02:41;;;;;;;23.42;19.10;;;25.20;24.40;;;;;;5034040;28;20858;-76
2022/08/17 10:05:16;;;;;;;28.20;20.03;;;25.10;24.90;;;;;;5040290;28;20389;-76
2022/08/17 10:08:13;;;;;;;27.53;21.00;;;25.00;25.30;;;;;;5049487;28;20381;-75
2022/08/17 10:11:13;;;;;;;30.90;20.10;;;25.00;25.50;;;;;;5005174;28;20401;-74
2022/08/17 10:13:50;;;;;;;28.00;20.45;;;24.80;26.60;;;;;;5038029;28;20467;-75
2022/08/17 10:16:30;;;;;;;30.95;20.60;;;24.70;27.10;;;;;;5044670;28;20389;-74
2022/08/17 10:19:25;;;;;;;26.20;20.25;;;24.80;27.20;;;;;;5048999;28;20749;-75
2022/08/17 10:27:52;;;;;;;33.10;21.93;;;24.80;27.90;;;;;;5048849;28;20380;-75
2022/08/17 10:30:21;;;;;;;29.23;21.92;;;24.70;27.90;;;;;;5059133;28;20385;-74
2022/08/17 10:32:54;;;;;;;29.75;22.02;;;24.60;28.50;;;;;;5044438;28;20883;-72
2022/08/17 10:35:32;;;;;;;30.83;20.90;;;24.60;28.80;;;;;;5038246;28;20395;-74
2022/08/17 10:38:20;;;;;;;29.83;22.03;;;24.50;29.20;;;;;;5034119;28;20460;-74
2022/08/17 10:41:04;;;;;;;27.65;20.95;;;24.50;29.10;;;;;;5033068;28;20494;-73
2022/08/17 10:44:07;;;;;;;32.92;21.90;;;24.50;29.40;;;;;;5032616;28;20442;-74
2022/08/17 10:47:06;;;;;;;32.67;22.40;;;24.50;29.60;;;;;;5029392;28;20390;-73
2022/08/17 10:49:46;;;;;;;31.48;22.30;;;24.30;30.30;;;;;;5029459;28;20383;-74
2022/08/17 10:52:27;;;;;;;39.28;23.70;;;24.30;30.70;;;;;;5030884;28;20887;-72
2022/08/17 10:54:55;;;;;;;34.30;24.73;;;24.10;31.60;;;;;;5029577;28;20972;-75
2022/08/17 10:57:32;;;;;;;28.80;23.48;;;24.00;32.30;;;;;;5029481;28;20395;-76
2022/08/17 11:00:00;;;;;;;34.53;25.90;;;24.00;33.90;;;;;;5027829;28;20435;-77
2022/08/17 11:02:30;;;;;;;34.95;25.80;;;24.10;35.00;;;;;;5049525;28;20388;-74
2022/08/17 11:05:21;;;;;;;30.60;25.45;;;24.10;35.90;;;;;;5049989;28;20439;-75
2022/08/17 11:08:10;;;;;;;36.60;25.13;;;24.20;35.00;;;;;;5049396;28;20385;-74
2022/08/17 11:10:52;;;;;;;34.97;25.45;;;24.20;36.00;;;;;;5034665;28;20455;-74
2022/08/17 11:13:39;;;;;;;30.63;24.75;;;24.20;36.90;;;;;;5028073;28;20426;-72
2022/08/17 11:16:16;;;;;;;36.03;25.13;;;23.90;38.30;;;;;;5042160;28;20420;-72
2022/08/17 11:19:03;;;;;;;34.15;23.67;;;23.80;38.60;;;;;;5038671;28;20405;-74
2022/08/17 11:22:06;;;;;;;38.95;26.20;;;23.80;39.90;;;;;;5049105;28;20388;-73
2022/08/17 11:24:41;;;;;;;37.85;26.20;;;23.90;39.60;;;;;;5041897;28;20393;-77
2022/08/17 11:27:12;;;;;;;35.60;26.45;;;24.00;40.10;;;;;;5054019;28;20481;-79
2022/08/17 11:30:06;;;;;;;41.78;25.38;;;24.30;38.70;;;;;;5046418;28;20850;-79
2022/08/17 11:32:51;;;;;;;27.83;23.83;;;24.80;36.10;;;;;;5055313;28;20436;-79
2022/08/17 11:35:19;;;;;;;36.50;23.75;;;25.40;32.80;;;;;;5054064;28;20401;-72
2022/08/17 11:38:03;;;;;;;33.45;25.90;;;25.80;31.50;;;;;;5049821;28;20397;-73
2022/08/17 11:40:47;;;;;;;31.13;25.58;;;26.00;29.30;;;;;;5033342;28;20459;-73
2022/08/17 11:43:23;;;;;;;34.65;27.15;;;26.60;27.60;;;;;;5012365;28;20385;-72
2022/08/17 11:46:09;;;;;;;37.30;27.38;;;27.00;26.00;;;;;;5011654;28;20412;-74
2022/08/17 11:52:00;;;;;;;34.78;27.65;;;27.60;23.10;;;;;;5036376;28;21000;-72
2022/08/17 11:54:29;;;;;;;35.40;29.05;;;27.70;22.50;;;;;;5033320;28;20741;-73
2022/08/17 11:56:57;;;;;;;35.47;28.42;;;27.80;22.40;;;;;;5041886;28;20403;-74
2022/08/17 11:59:32;;;;;;;38.97;29.77;;;28.10;21.80;;;;;;5053455;28;20397;-72
2022/08/17 12:02:00;;;;;;;36.83;28.48;;;28.60;20.00;;;;;;5053530;28;20393;-73
2022/08/17 12:04:30;;;;;;;40.03;29.77;;;29.00;19.10;;;;;;5054246;28;20392;-74
2022/08/17 12:07:19;;;;;;;36.67;31.23;;;27.90;20.70;;;;;;5032867;28;20403;-72
2022/08/17 12:09:49;;;;;;;37.08;29.05;;;27.50;22.20;;;;;;5036684;28;20402;-73
2022/08/17 12:12:21;;;;;;;37.03;30.63;;;27.10;23.80;;;;;;5033128;28;20387;-74
2022/08/17 12:14:53;;;;;;;39.42;31.45;;;27.30;24.10;;;;;;5033793;28;20887;-73
2022/08/17 12:17:24;;;;;;;39.17;31.80;;;27.10;23.40;;;;;;5034833;28;20407;-74
2022/08/17 12:19:51;;;;;;;46.00;34.40;;;26.80;24.70;;;;;;5033587;28;20411;-74
2022/08/17 12:22:24;;;;;;;47.83;34.10;;;26.30;26.20;;;;;;5032686;28;20418;-74
2022/08/17 12:25:09;;;;;;;41.20;32.75;;;26.00;27.20;;;;;;5038287;28;20391;-72
2022/08/17 12:27:42;;;;;;;43.57;32.83;;;26.30;27.50;;;;;;5012119;28;20423;-73
2022/08/17 12:30:12;;;;;;;47.60;34.67;;;26.30;27.30;;;;;;5045752;28;20451;-74
2022/08/17 12:32:44;;;;;;;41.10;35.22;;;26.50;26.60;;;;;;5047152;28;20409;-75
2022/08/17 12:35:37;;;;;;;42.85;33.20;;;27.10;25.40;;;;;;5051600;28;20778;-74
2022/08/17 12:38:09;;;;;;;42.13;35.42;;;27.90;22.30;;;;;;5036286;28;20395;-75
2022/08/17 12:40:35;;;;;;;43.63;35.20;;;28.20;21.30;;;;;;5032523;28;20744;-74
2022/08/17 12:43:05;;;;;;;41.20;31.80;;;28.30;21.50;;;;;;5032664;28;20466;-73
2022/08/17 12:45:33;;;;;;;41.47;33.45;;;28.30;21.70;;;;;;5031717;28;20410;-72
2022/08/17 12:48:06;;;;;;;45.55;38.20;;;27.20;24.20;;;;;;5032560;28;20433;-74
2022/08/17 12:50:38;;;;;;;44.53;35.30;;;26.80;25.60;;;;;;5049623;28;20734;-75
2022/08/17 12:53:14;;;;;;;51.83;38.95;;;26.40;27.40;;;;;;5052832;28;20880;-77
2022/08/17 12:55:41;;;;;;;53.42;40.75;;;26.60;26.70;;;;;;5042476;28;20395;-76
2022/08/17 12:58:11;;;;;;;51.37;39.97;;;26.70;26.50;;;;;;5032535;28;20377;-75
2022/08/17 13:00:41;;;;;;;45.03;36.15;;;27.00;26.00;;;;;;5033211;28;20411;-74
2022/08/17 13:03:14;;;;;;;47.42;36.88;;;26.90;25.80;;;;;;5033370;28;20447;-70
2022/08/17 13:06:00;;;;;;;45.55;35.53;;;26.90;25.80;;;;;;5032938;28;20456;-72
2022/08/17 13:08:32;;;;;;;43.78;32.83;;;27.20;25.50;;;;;;5032307;28;20380;-71
2022/08/17 13:11:02;;;;;;;44.72;34.92;;;27.60;24.50;;;;;;5046477;28;20413;-72
2022/08/17 13:13:32;;;;;;;50.70;35.83;;;27.60;24.20;;;;;;5043221;28;20399;-71
2022/08/17 13:16:20;;;;;;;43.22;33.60;;;27.00;24.70;;;;;;5032513;28;20387;-73
2022/08/17 13:18:48;;;;;;;50.50;39.00;;;27.10;25.70;;;;;;5021485;28;20410;-70
2022/08/17 13:21:29;;;;;;;46.70;37.35;;;27.40;25.50;;;;;;5031854;28;20402;-71
2022/08/17 13:23:57;;;;;;;46.45;39.00;;;28.30;23.20;;;;;;5032106;28;20376;-71
2022/08/17 13:26:39;;;;;;;55.38;39.03;;;28.70;21.80;;;;;;5031965;28;20418;-72
2022/08/17 13:29:25;;;;;;;45.92;38.28;;;28.90;21.20;;;;;;5047500;28;20399;-70
2022/08/17 13:31:52;;;;;;;52.87;44.23;;;27.90;23.70;;;;;;5048338;28;20404;-71
2022/08/17 13:34:31;;;;;;;56.05;44.20;;;27.50;25.40;;;;;;5038630;28;20487;-71